Angle, Utah
Current Conditions -  °F | °C
As of 1:17 PM on Monday 22 Dec 2014 (Local Time) from KBCE Reporting Station
Moderate Rain Moderate Rain  
Wind Chill: 29°   Ceiling: 2500
Heat Index: 39°   Visibility: 5mi
Dew Point: 33°   Wind: 20mph
Humidity: 79%   Direction: 300°WNW
Pressure: 29.96"   Gusts: 26mph
Location:  37.9601°N, 112.141°W
Report Text: KBCE 222017Z AUTO 30017G23KT 5SM RA BKN025 BKN032 OVC055 04/01 A2996 RMK AO2 PK WND 30033/2006 P0002 T00390006
Loading
Personal Weather Stations






























Interactive Weather Map New forecast layout! Learn more

10-Day Weather Forecast

Advertisements
Track Severe Weather on mobile